createdAt,value
2023-05-11T00:01:44.520Z,29.33
2023-05-11T00:06:37.499Z,31.10
2023-05-11T00:09:04.111Z,26.90
2023-05-11T00:11:31.029Z,29.33
2023-05-11T00:13:57.515Z,26.13
2023-05-11T00:16:24.099Z,28.63
2023-05-11T00:18:50.673Z,26.43
2023-05-11T00:21:17.193Z,27.20
2023-05-11T00:23:43.694Z,27.77
2023-05-11T00:26:10.833Z,30.03
2023-05-11T00:28:37.369Z,27.47
2023-05-11T00:31:03.881Z,27.67
2023-05-11T00:33:30.499Z,25.20
2023-05-11T00:35:57.115Z,27.13
2023-05-11T00:38:23.672Z,24.77
2023-05-11T00:40:50.999Z,30.73
2023-05-11T00:43:17.470Z,29.70
2023-05-11T00:45:47.960Z,26.67
2023-05-11T00:48:15.439Z,25.03
2023-05-11T00:50:42.175Z,26.47
2023-05-11T00:53:09.058Z,26.33
2023-05-11T00:55:35.517Z,25.53
2023-05-11T00:58:05.553Z,25.83
2023-05-11T01:00:32.178Z,26.47
2023-05-11T01:03:00.477Z,27.43
2023-05-11T01:05:41.699Z,25.53
2023-05-11T01:08:32.507Z,25.07
2023-05-11T01:11:03.791Z,26.60
2023-05-11T01:13:38.037Z,27.87
2023-05-11T01:16:12.270Z,28.20
2023-05-11T01:18:40.740Z,28.27
2023-05-11T01:21:08.579Z,27.87
2023-05-11T01:24:03.711Z,28.97
2023-05-11T01:27:04.502Z,28.10
2023-05-11T01:29:49.952Z,28.10
2023-05-11T01:32:27.727Z,27.27
2023-05-11T01:35:10.264Z,28.23
2023-05-11T01:37:38.984Z,28.07
2023-05-11T01:40:13.754Z,27.90
2023-05-11T01:42:44.476Z,31.17
2023-05-11T01:45:11.797Z,29.97
2023-05-11T01:47:40.719Z,30.43
2023-05-11T01:50:08.519Z,28.73
2023-05-11T01:52:36.570Z,30.20
2023-05-11T01:55:05.012Z,31.20
2023-05-11T01:57:32.439Z,30.70
2023-05-11T02:00:00.069Z,31.23
2023-05-11T02:02:27.500Z,31.40
2023-05-11T02:04:54.655Z,28.67
2023-05-11T02:07:21.632Z,28.13
2023-05-11T02:09:48.737Z,29.73
2023-05-11T02:12:16.692Z,30.03
2023-05-11T02:14:43.487Z,30.50
2023-05-11T02:17:10.776Z,31.50
2023-05-11T02:19:38.530Z,30.37
2023-05-11T02:22:05.727Z,30.37
2023-05-11T02:24:33.335Z,32.10
2023-05-11T02:26:59.827Z,26.67
2023-05-11T02:29:26.488Z,30.10
2023-05-11T02:31:57.228Z,28.27
2023-05-11T02:34:26.824Z,28.47
2023-05-11T02:36:56.153Z,30.30
2023-05-11T02:39:23.392Z,30.40
2023-05-11T02:41:55.957Z,31.53
2023-05-11T02:44:24.589Z,29.60
2023-05-11T02:46:52.762Z,32.07
2023-05-11T02:49:21.300Z,29.57
2023-05-11T02:51:48.837Z,33.70
2023-05-11T02:54:16.095Z,35.77
2023-05-11T02:56:42.636Z,35.90
2023-05-11T02:59:09.236Z,34.60
2023-05-11T03:01:35.797Z,34.03
2023-05-11T03:04:05.744Z,35.50
2023-05-11T03:06:33.304Z,35.07
2023-05-11T03:09:01.338Z,35.37
2023-05-11T03:11:28.019Z,36.50
2023-05-11T03:13:54.624Z,34.10
2023-05-11T03:16:21.681Z,35.53
2023-05-11T03:18:49.297Z,36.93
2023-05-11T03:21:17.911Z,36.00
2023-05-11T03:23:46.013Z,35.77
2023-05-11T03:26:13.341Z,36.13
2023-05-11T03:28:41.276Z,34.53
2023-05-11T03:31:07.887Z,37.00
2023-05-11T03:33:34.385Z,36.63
2023-05-11T03:36:01.137Z,36.73
2023-05-11T03:38:28.259Z,36.83
2023-05-11T03:40:54.937Z,33.63
2023-05-11T03:43:22.174Z,35.50
2023-05-11T03:45:51.489Z,36.77
2023-05-11T03:48:18.574Z,37.10
2023-05-11T03:50:45.371Z,36.10
2023-05-11T03:53:12.513Z,34.37
2023-05-11T03:55:39.194Z,36.83
2023-05-11T03:58:09.755Z,34.27
2023-05-11T04:00:42.669Z,35.37
2023-05-11T04:03:09.828Z,36.10
2023-05-11T04:05:36.498Z,37.83
2023-05-11T04:08:04.498Z,41.43
2023-05-11T04:10:30.995Z,37.53
2023-05-11T04:12:57.812Z,37.57
2023-05-11T04:15:24.282Z,36.33
2023-05-11T04:17:50.836Z,38.90
2023-05-11T04:20:17.710Z,36.90
2023-05-11T04:22:44.372Z,36.93
2023-05-11T04:25:11.513Z,39.73
2023-05-11T04:27:38.036Z,37.47
2023-05-11T04:30:05.421Z,37.43
2023-05-11T04:32:31.966Z,33.77
2023-05-11T04:34:58.408Z,37.63
2023-05-11T04:37:24.877Z,36.93
2023-05-11T04:39:51.343Z,37.60
2023-05-11T04:42:17.954Z,35.93
2023-05-11T04:44:44.391Z,34.07
2023-05-11T04:47:11.023Z,34.07
2023-05-11T04:49:37.534Z,37.77
2023-05-11T04:52:04.146Z,37.00
2023-05-11T04:54:31.134Z,37.40
2023-05-11T04:56:57.617Z,36.23
2023-05-11T04:59:24.134Z,34.47
2023-05-11T05:01:50.687Z,36.10
2023-05-11T05:04:17.189Z,34.03
2023-05-11T05:06:43.716Z,31.40
2023-05-11T05:09:11.187Z,32.30
2023-05-11T05:11:37.735Z,32.97
2023-05-11T05:14:04.258Z,33.33
2023-05-11T05:16:32.435Z,35.23
2023-05-11T05:19:00.549Z,35.77
2023-05-11T05:21:27.088Z,34.00
2023-05-11T05:23:53.597Z,36.63
2023-05-11T05:26:20.049Z,32.43
2023-05-11T05:28:46.518Z,31.67
2023-05-11T05:31:13.038Z,33.70
2023-05-11T05:33:39.514Z,31.37
2023-05-11T05:36:06.229Z,34.27
2023-05-11T05:38:32.800Z,34.53
2023-05-11T05:40:59.479Z,33.83
2023-05-11T05:43:25.954Z,32.40
2023-05-11T05:45:52.435Z,33.97
2023-05-11T05:48:18.916Z,35.87
2023-05-11T05:50:45.442Z,35.43
2023-05-11T05:53:11.966Z,34.67
2023-05-11T05:55:38.502Z,36.73
2023-05-11T05:58:04.982Z,36.97
2023-05-11T06:00:31.606Z,33.70
2023-05-11T06:02:58.127Z,38.00
2023-05-11T06:05:24.658Z,40.57
2023-05-11T06:08:01.882Z,40.77
2023-05-11T06:10:36.056Z,38.60
2023-05-11T06:13:02.524Z,40.20
2023-05-11T06:15:28.968Z,39.53
2023-05-11T06:17:55.600Z,39.83
2023-05-11T06:20:23.412Z,38.10
2023-05-11T06:22:49.977Z,38.60
2023-05-11T06:25:16.849Z,42.00
2023-05-11T06:27:43.325Z,41.23
2023-05-11T06:30:10.107Z,41.90
2023-05-11T06:32:36.732Z,41.00
2023-05-11T06:35:03.347Z,43.20
2023-05-11T06:37:30.332Z,42.33
2023-05-11T06:39:56.921Z,38.27
2023-05-11T06:42:23.450Z,38.37
2023-05-11T06:44:49.946Z,37.80
2023-05-11T06:47:16.689Z,35.63
2023-05-11T06:49:43.194Z,36.33
2023-05-11T06:52:10.085Z,35.27
2023-05-11T06:54:36.804Z,35.30
2023-05-11T06:57:03.736Z,33.67
2023-05-11T06:59:30.597Z,34.57
2023-05-11T07:01:57.080Z,35.60
2023-05-11T07:04:24.351Z,34.13
2023-05-11T07:06:50.960Z,35.87
2023-05-11T07:09:17.439Z,36.77
2023-05-11T07:11:43.997Z,33.63
2023-05-11T07:14:10.575Z,35.37
2023-05-11T07:16:40.226Z,36.27
2023-05-11T07:19:08.306Z,34.10
2023-05-11T07:21:35.716Z,34.40
2023-05-11T07:24:03.238Z,34.67
2023-05-11T07:26:29.932Z,34.30
2023-05-11T07:28:56.487Z,35.57
2023-05-11T07:31:22.993Z,32.03
2023-05-11T07:33:49.527Z,37.10
2023-05-11T07:36:16.000Z,35.47
2023-05-11T07:38:42.508Z,33.30
2023-05-11T07:41:10.793Z,34.90
2023-05-11T07:43:38.981Z,34.13
2023-05-11T07:46:05.719Z,31.23
2023-05-11T07:48:32.219Z,33.87
2023-05-11T07:50:58.767Z,32.10
2023-05-11T07:53:25.317Z,32.93
2023-05-11T07:55:51.775Z,33.40
2023-05-11T07:58:18.381Z,32.13
2023-05-11T08:00:44.836Z,40.63
2023-05-11T08:03:11.364Z,36.70
2023-05-11T08:05:38.059Z,37.00
2023-05-11T08:08:05.318Z,37.37
2023-05-11T08:10:32.017Z,36.60
2023-05-11T08:12:59.270Z,38.47
2023-05-11T08:15:26.374Z,37.77
2023-05-11T08:17:53.834Z,37.10
2023-05-11T08:20:20.423Z,35.53
2023-05-11T08:22:47.011Z,36.47
2023-05-11T08:25:13.852Z,37.60
2023-05-11T08:27:40.577Z,36.33
2023-05-11T08:30:10.124Z,34.40
2023-05-11T08:32:54.489Z,38.40
2023-05-11T08:35:24.845Z,38.40
2023-05-11T08:37:51.333Z,37.00
2023-05-11T08:40:19.520Z,39.07
2023-05-11T08:42:46.931Z,33.60
2023-05-11T08:45:13.510Z,33.77
2023-05-11T08:47:40.101Z,33.53
2023-05-11T08:50:06.986Z,31.50
2023-05-11T08:52:34.503Z,30.83
2023-05-11T08:55:01.121Z,31.17
2023-05-11T08:57:32.135Z,32.17
2023-05-11T09:00:00.447Z,32.67
2023-05-11T09:02:27.424Z,31.17
2023-05-11T09:04:54.765Z,32.63
2023-05-11T09:07:22.317Z,30.90
2023-05-11T09:09:48.972Z,31.00
2023-05-11T09:12:16.726Z,41.60
2023-05-11T09:14:43.358Z,30.57
2023-05-11T09:17:09.949Z,34.57
2023-05-11T09:19:36.478Z,30.47
2023-05-11T09:22:05.396Z,29.77
2023-05-11T09:24:32.435Z,30.27
2023-05-11T09:29:53.027Z,25.90
2023-05-11T09:32:19.489Z,26.57
2023-05-11T09:34:46.277Z,29.60
2023-05-11T09:37:19.396Z,28.83
2023-05-11T09:40:28.249Z,25.20
2023-05-11T09:42:32.431Z,25.33
2023-05-11T09:44:58.869Z,27.37
2023-05-11T09:47:25.388Z,23.73
2023-05-11T09:49:52.007Z,24.80
2023-05-11T09:52:21.027Z,31.93
2023-05-11T09:54:50.662Z,26.93
2023-05-11T09:57:30.688Z,26.13
2023-05-11T09:59:58.946Z,23.27
2023-05-11T10:02:30.612Z,24.67
2023-05-11T10:04:58.623Z,29.37
2023-05-11T10:07:28.713Z,26.10
2023-05-11T10:09:59.337Z,22.47
2023-05-11T10:12:27.347Z,30.83
2023-05-11T10:15:07.658Z,24.23
2023-05-11T10:17:35.106Z,23.83
2023-05-11T10:20:02.144Z,24.83
2023-05-11T10:22:29.359Z,24.80
2023-05-11T10:24:59.740Z,29.87
2023-05-11T10:27:27.083Z,27.27
2023-05-11T10:29:53.943Z,26.03
2023-05-11T10:32:22.699Z,26.93
2023-05-11T10:34:50.722Z,27.20
2023-05-11T10:37:17.652Z,28.43
2023-05-11T10:39:48.444Z,29.93
2023-05-11T10:42:42.781Z,28.33
2023-05-11T10:45:24.846Z,27.80
2023-05-11T10:48:10.100Z,31.33
2023-05-11T10:51:02.561Z,29.20
2023-05-11T10:53:35.148Z,27.43
2023-05-11T10:56:20.375Z,27.37
2023-05-11T10:59:14.756Z,26.80
2023-05-11T11:01:42.556Z,29.80
2023-05-11T11:04:13.580Z,26.27
2023-05-11T11:06:44.186Z,26.00
2023-05-11T11:09:15.564Z,27.77
2023-05-11T11:11:46.912Z,28.73
2023-05-11T11:14:15.448Z,29.47
2023-05-11T11:17:17.016Z,26.27
2023-05-11T11:19:43.766Z,32.87
2023-05-11T11:22:35.389Z,26.17
2023-05-11T11:25:06.144Z,25.93
2023-05-11T11:27:41.938Z,27.33
2023-05-11T11:30:18.660Z,27.10
2023-05-11T11:32:46.478Z,27.17
2023-05-11T11:35:47.393Z,29.07
2023-05-11T11:38:16.457Z,28.07
2023-05-11T11:40:52.713Z,30.20
2023-05-11T11:43:28.445Z,29.87
2023-05-11T11:46:02.701Z,28.27
2023-05-11T11:48:36.555Z,25.87
2023-05-11T11:51:06.722Z,30.83
2023-05-11T11:53:36.444Z,29.43
2023-05-11T11:56:15.562Z,28.80
2023-05-11T11:58:42.479Z,31.30
2023-05-11T12:01:13.589Z,28.13
2023-05-11T12:03:44.073Z,27.77
2023-05-11T12:06:12.189Z,27.07
2023-05-11T12:08:39.854Z,30.40
2023-05-11T12:11:07.049Z,28.37
2023-05-11T12:13:34.740Z,29.33
2023-05-11T12:16:10.462Z,30.40
2023-05-11T12:18:37.063Z,29.17
2023-05-11T12:21:03.719Z,31.97
2023-05-11T12:23:30.408Z,26.07
2023-05-11T12:26:04.238Z,28.67
2023-05-11T12:28:30.728Z,32.17
2023-05-11T12:30:59.136Z,27.03
2023-05-11T12:33:27.168Z,29.73
2023-05-11T12:35:54.948Z,28.70
2023-05-11T12:38:21.615Z,30.70
2023-05-11T12:40:53.116Z,26.10
2023-05-11T12:43:20.907Z,28.03
2023-05-11T12:45:47.789Z,28.77
2023-05-11T12:48:15.136Z,30.03
2023-05-11T12:50:42.749Z,29.67
2023-05-11T12:53:14.465Z,29.87
2023-05-11T12:55:41.577Z,29.57
2023-05-11T12:58:15.359Z,29.10
2023-05-11T13:00:55.690Z,25.87
2023-05-11T13:03:23.029Z,26.47
2023-05-11T13:05:49.993Z,24.63
2023-05-11T13:08:19.067Z,26.87
2023-05-11T13:10:47.748Z,23.43
2023-05-11T13:13:27.615Z,23.00
2023-05-11T13:15:54.919Z,24.90
2023-05-11T13:18:23.238Z,22.77
2023-05-11T13:21:05.126Z,23.77
2023-05-11T13:23:31.814Z,26.20
2023-05-11T13:25:58.323Z,26.27
2023-05-11T13:28:25.194Z,22.73
2023-05-11T13:30:58.059Z,26.30
2023-05-11T13:33:24.566Z,22.13
2023-05-11T13:35:51.098Z,26.60
2023-05-11T13:38:17.595Z,22.03
2023-05-11T13:40:44.035Z,24.30
2023-05-11T13:43:10.730Z,24.20
2023-05-11T13:45:40.070Z,26.03
2023-05-11T13:48:07.107Z,25.80
2023-05-11T13:50:33.597Z,24.57
2023-05-11T13:53:00.160Z,24.67
2023-05-11T13:55:28.183Z,26.17
2023-05-11T13:57:54.765Z,25.70
2023-05-11T14:00:21.453Z,25.60
2023-05-11T14:02:50.496Z,28.70
2023-05-11T14:05:17.598Z,24.70
2023-05-11T14:07:48.189Z,22.90
2023-05-11T14:10:16.276Z,23.27
2023-05-11T14:12:42.828Z,21.87
2023-05-11T14:15:10.048Z,22.60
2023-05-11T14:17:36.777Z,21.13
2023-05-11T14:20:04.230Z,23.27
2023-05-11T14:22:30.913Z,21.87
2023-05-11T14:24:57.363Z,22.73
2023-05-11T14:27:23.937Z,22.10
2023-05-11T14:29:52.176Z,22.10
2023-05-11T14:32:19.523Z,23.50
2023-05-11T14:34:46.610Z,21.90
2023-05-11T14:37:13.350Z,21.93
2023-05-11T14:39:41.170Z,24.93
2023-05-11T14:42:08.946Z,24.27
2023-05-11T14:44:35.482Z,24.53
2023-05-11T14:47:02.018Z,24.63
2023-05-11T14:49:28.853Z,25.53
2023-05-11T14:51:55.557Z,23.70
2023-05-11T14:54:22.029Z,29.93
2023-05-11T14:56:53.741Z,33.17
2023-05-11T14:59:21.314Z,25.67
2023-05-11T15:01:49.608Z,29.73
2023-05-11T15:04:16.843Z,33.03
2023-05-11T15:06:43.778Z,30.83
2023-05-11T15:09:10.291Z,30.57
2023-05-11T15:11:39.617Z,31.27
2023-05-11T15:14:07.123Z,34.37
2023-05-11T15:16:33.742Z,35.37
2023-05-11T15:19:00.575Z,46.20
2023-05-11T15:21:27.531Z,37.43
2023-05-11T15:23:54.354Z,37.90
2023-05-11T15:26:22.167Z,37.97
2023-05-11T15:28:48.978Z,42.10
2023-05-11T15:31:15.540Z,43.00
2023-05-11T15:33:42.539Z,40.70
2023-05-11T15:36:13.541Z,38.10
2023-05-11T15:38:40.542Z,37.63
2023-05-11T15:41:07.836Z,41.97
2023-05-11T15:43:34.780Z,41.87
2023-05-11T15:46:03.608Z,38.37
2023-05-11T15:48:30.383Z,39.33
2023-05-11T15:50:58.815Z,39.57
2023-05-11T15:53:25.470Z,37.07
2023-05-11T15:55:55.403Z,39.60
2023-05-11T15:58:22.241Z,41.10
2023-05-11T16:00:49.149Z,43.10
2023-05-11T16:03:15.978Z,38.23
2023-05-11T16:05:42.539Z,40.10
2023-05-11T16:08:08.970Z,45.47
2023-05-11T16:10:35.447Z,37.33
2023-05-11T16:13:01.895Z,44.97
2023-05-11T16:15:29.453Z,40.67
2023-05-11T16:17:56.041Z,44.03
2023-05-11T16:20:22.644Z,40.07
2023-05-11T16:22:49.099Z,40.43
2023-05-11T16:25:16.150Z,38.47
2023-05-11T16:27:42.629Z,40.50
2023-05-11T16:30:22.217Z,40.07
2023-05-11T16:32:51.124Z,39.33
2023-05-11T16:35:17.731Z,38.87
2023-05-11T16:37:44.197Z,37.73
2023-05-11T16:40:10.956Z,39.47
2023-05-11T16:42:37.542Z,39.70
2023-05-11T16:45:04.907Z,39.13
2023-05-11T16:47:31.528Z,37.47
2023-05-11T16:49:58.182Z,40.07
2023-05-11T16:52:24.796Z,39.63
2023-05-11T16:54:51.322Z,40.47
2023-05-11T16:57:17.804Z,36.97
2023-05-11T16:59:44.400Z,41.37
2023-05-11T17:02:11.143Z,37.87
2023-05-11T17:04:37.684Z,39.03
2023-05-11T17:07:04.327Z,36.90
2023-05-11T17:09:31.046Z,50.07
2023-05-11T17:11:57.555Z,36.67
2023-05-11T17:14:24.087Z,42.03
2023-05-11T17:16:50.955Z,36.50
2023-05-11T17:19:18.095Z,39.67
2023-05-11T17:21:44.677Z,38.43
2023-05-11T17:24:11.269Z,37.80
2023-05-11T17:26:47.947Z,39.03
2023-05-11T17:29:16.565Z,40.33
2023-05-11T17:31:43.432Z,37.40
2023-05-11T17:34:10.780Z,38.37
2023-05-11T17:36:37.589Z,38.67
2023-05-11T17:39:05.091Z,38.97
2023-05-11T17:41:31.987Z,37.70
2023-05-11T17:43:58.450Z,36.93
2023-05-11T17:46:25.303Z,38.17
2023-05-11T17:48:53.005Z,36.50
2023-05-11T17:51:20.343Z,36.27
2023-05-11T17:53:47.804Z,35.13
2023-05-11T17:56:16.072Z,37.13
2023-05-11T17:58:46.539Z,35.80
2023-05-11T18:01:16.970Z,34.20
2023-05-11T18:03:43.824Z,36.33
2023-05-11T18:06:10.636Z,37.27
2023-05-11T18:08:37.719Z,35.63
2023-05-11T18:11:05.535Z,35.00
2023-05-11T18:13:32.080Z,38.33
2023-05-11T18:16:00.345Z,35.13
2023-05-11T18:18:27.031Z,35.90
2023-05-11T18:20:54.124Z,37.70
2023-05-11T18:23:21.182Z,34.00
2023-05-11T18:25:48.464Z,63.30
2023-05-11T18:28:14.954Z,35.60
2023-05-11T18:30:41.422Z,38.97
2023-05-11T18:33:08.466Z,31.27
2023-05-11T18:35:35.184Z,32.80
2023-05-11T18:38:04.153Z,32.37
2023-05-11T18:40:30.613Z,37.10
2023-05-11T18:42:57.588Z,37.40
2023-05-11T18:45:24.103Z,29.30
2023-05-11T18:47:51.065Z,30.97
2023-05-11T18:50:17.778Z,31.80
2023-05-11T18:52:44.753Z,30.37
2023-05-11T18:55:11.300Z,30.00
2023-05-11T18:57:39.993Z,31.13
2023-05-11T19:00:07.080Z,31.70
2023-05-11T19:02:34.038Z,29.07
2023-05-11T19:05:00.559Z,31.53
2023-05-11T19:07:27.024Z,34.53
2023-05-11T19:09:53.789Z,33.40
2023-05-11T19:12:20.300Z,32.63
2023-05-11T19:14:47.521Z,32.17
2023-05-11T19:17:14.192Z,33.40
2023-05-11T19:19:40.659Z,30.80
2023-05-11T19:22:09.074Z,34.27
2023-05-11T19:24:35.923Z,38.90
2023-05-11T19:27:07.704Z,38.83
2023-05-11T19:29:35.443Z,31.27
2023-05-11T19:32:02.320Z,34.57
2023-05-11T19:34:28.993Z,37.33
2023-05-11T19:36:55.475Z,31.40
2023-05-11T19:39:21.990Z,28.47
2023-05-11T19:41:48.511Z,28.90
2023-05-11T19:44:15.155Z,31.37
2023-05-11T19:46:46.455Z,36.73
2023-05-11T19:49:15.011Z,32.40
2023-05-11T19:51:42.159Z,29.07
2023-05-11T19:54:08.648Z,36.70
2023-05-11T19:56:35.150Z,29.20
2023-05-11T19:59:02.704Z,31.10
2023-05-11T20:01:29.217Z,26.40
2023-05-11T20:03:56.292Z,28.87
2023-05-11T20:06:22.987Z,32.17
2023-05-11T20:08:51.549Z,30.77
2023-05-11T20:11:18.344Z,29.20
2023-05-11T20:13:46.835Z,32.33
2023-05-11T20:16:13.779Z,28.80
2023-05-11T20:18:40.432Z,28.00
2023-05-11T20:21:07.088Z,29.63
2023-05-11T20:23:35.185Z,27.70
2023-05-11T20:26:07.687Z,29.00
2023-05-11T20:28:34.150Z,27.03
2023-05-11T20:31:03.062Z,30.10
2023-05-11T20:36:00.954Z,32.50
2023-05-11T20:38:27.489Z,27.03
2023-05-11T20:41:00.441Z,29.37
2023-05-11T20:43:27.232Z,29.00
2023-05-11T20:45:54.370Z,25.07
2023-05-11T20:48:32.395Z,27.70
2023-05-11T20:51:05.492Z,27.70
2023-05-11T20:53:32.072Z,28.27
2023-05-11T20:55:58.808Z,25.50
2023-05-11T20:58:26.264Z,28.07
2023-05-11T21:00:53.300Z,25.20
2023-05-11T21:03:20.088Z,25.80
2023-05-11T21:05:46.742Z,27.07
2023-05-11T21:08:15.080Z,22.60
2023-05-11T21:10:42.045Z,21.23
2023-05-11T21:13:08.970Z,31.77
2023-05-11T21:15:35.978Z,24.30
2023-05-11T21:18:02.636Z,22.03
2023-05-11T21:20:29.223Z,21.43
2023-05-11T21:22:55.847Z,21.33
2023-05-11T21:25:22.320Z,22.17
2023-05-11T21:27:48.822Z,20.33
2023-05-11T21:30:15.317Z,21.60
2023-05-11T21:32:41.903Z,21.70
2023-05-11T21:35:08.972Z,22.50
2023-05-11T21:37:36.441Z,23.53
2023-05-11T21:40:03.224Z,22.50
2023-05-11T21:42:34.602Z,20.17
2023-05-11T21:45:02.052Z,20.57
2023-05-11T21:47:28.911Z,18.90
2023-05-11T21:49:55.451Z,24.53
2023-05-11T21:52:21.898Z,18.27
2023-05-11T21:54:48.416Z,22.57
2023-05-11T21:57:15.656Z,20.80
2023-05-11T21:59:42.154Z,19.50
2023-05-11T22:02:08.860Z,20.90
2023-05-11T22:04:35.614Z,21.90
2023-05-11T22:07:02.069Z,19.77
2023-05-11T22:09:28.573Z,20.70
2023-05-11T22:11:55.037Z,19.37
2023-05-11T22:14:24.135Z,20.90
2023-05-11T22:16:50.645Z,19.07
2023-05-11T22:19:17.184Z,18.00
2023-05-11T22:21:43.661Z,20.47
2023-05-11T22:24:10.621Z,19.17
2023-05-11T22:26:37.060Z,19.87
2023-05-11T22:29:04.075Z,16.97
2023-05-11T22:31:30.558Z,18.23
2023-05-11T22:33:58.346Z,18.37
2023-05-11T22:36:24.863Z,18.27
2023-05-11T22:38:51.384Z,19.07
2023-05-11T22:41:17.856Z,17.37
2023-05-11T22:43:44.381Z,17.73
2023-05-11T22:46:10.985Z,18.00
2023-05-11T22:48:37.534Z,19.80
2023-05-11T22:51:06.236Z,17.43
2023-05-11T22:53:32.820Z,17.13
2023-05-11T22:56:09.269Z,17.10
2023-05-11T22:58:35.797Z,17.47
2023-05-11T23:01:02.311Z,19.27
2023-05-11T23:03:29.027Z,16.90
2023-05-11T23:05:55.622Z,17.40
2023-05-11T23:08:22.978Z,15.83
2023-05-11T23:10:50.470Z,18.70
2023-05-11T23:13:17.631Z,16.50
2023-05-11T23:15:44.120Z,16.80
2023-05-11T23:18:10.719Z,19.17
2023-05-11T23:20:37.286Z,17.67
2023-05-11T23:23:03.862Z,18.07
2023-05-11T23:25:30.541Z,17.87
2023-05-11T23:27:56.993Z,18.37
2023-05-11T23:30:23.661Z,19.87
2023-05-11T23:32:50.202Z,17.40
2023-05-11T23:35:16.653Z,18.83
2023-05-11T23:37:43.130Z,16.30
2023-05-11T23:40:10.089Z,18.13
2023-05-11T23:42:36.874Z,16.03
2023-05-11T23:45:04.334Z,17.30
2023-05-11T23:47:34.033Z,18.27
2023-05-11T23:50:00.826Z,14.90
2023-05-11T23:52:27.289Z,17.97
2023-05-11T23:54:53.836Z,15.47
2023-05-11T23:57:20.334Z,19.03
2023-05-11T23:59:46.917Z,19.43
